createdAt,value
2018-12-08T00:00:51.217Z,0.00
2018-12-08T00:01:51.206Z,0.00
2018-12-08T00:02:51.207Z,0.00
2018-12-08T00:03:51.210Z,0.00
2018-12-08T00:04:51.177Z,0.00
2018-12-08T00:05:51.163Z,0.00
2018-12-08T00:06:51.154Z,0.00
2018-12-08T00:07:51.143Z,0.00
2018-12-08T00:08:51.146Z,0.00
2018-12-08T00:09:51.129Z,0.00
2018-12-08T00:10:51.113Z,0.00
2018-12-08T00:11:51.100Z,0.00
2018-12-08T00:12:51.091Z,0.00
2018-12-08T00:13:51.094Z,0.00
2018-12-08T00:14:51.069Z,0.00
2018-12-08T00:15:51.062Z,0.00
2018-12-08T00:16:51.047Z,0.00
2018-12-08T00:17:51.037Z,0.00
2018-12-08T00:18:51.039Z,0.00
2018-12-08T00:19:51.015Z,0.00
2018-12-08T00:20:51.004Z,0.00
2018-12-08T00:21:51.008Z,0.00
2018-12-08T00:22:50.984Z,0.00
2018-12-08T00:23:50.985Z,0.00
2018-12-08T00:24:50.963Z,0.00
2018-12-08T00:25:50.952Z,0.00
2018-12-08T00:26:50.941Z,0.00
2018-12-08T00:27:50.936Z,0.00
2018-12-08T00:28:50.936Z,0.00
2018-12-08T00:29:50.919Z,0.00
2018-12-08T00:30:50.897Z,0.00
2018-12-08T00:31:50.887Z,0.00
2018-12-08T00:32:50.877Z,0.00
2018-12-08T00:33:50.879Z,0.00
2018-12-08T00:34:50.855Z,0.00
2018-12-08T00:35:50.854Z,0.00
2018-12-08T00:36:50.834Z,0.00
2018-12-08T00:37:50.823Z,0.00
2018-12-08T00:38:50.828Z,0.00
2018-12-08T00:39:50.808Z,0.00
2018-12-08T00:40:50.794Z,0.00
2018-12-08T00:41:50.791Z,0.00
2018-12-08T00:42:50.772Z,0.00
2018-12-08T00:43:50.773Z,0.00
2018-12-08T00:44:50.748Z,0.00
2018-12-08T00:45:50.746Z,0.00
2018-12-08T00:46:50.729Z,0.00
2018-12-08T00:47:50.729Z,0.00
2018-12-08T00:48:50.719Z,0.00
2018-12-08T00:49:50.696Z,0.00
2018-12-08T00:50:50.685Z,0.00
2018-12-08T00:51:50.674Z,0.00
2018-12-08T00:52:50.664Z,0.00
2018-12-08T00:53:50.669Z,0.00
2018-12-08T00:54:50.654Z,0.00
2018-12-08T00:55:50.631Z,0.00
2018-12-08T00:56:50.627Z,0.00
2018-12-08T00:57:50.611Z,0.00
2018-12-08T00:58:50.612Z,0.00
2018-12-08T00:59:50.590Z,0.00
2018-12-08T01:00:50.618Z,0.00
2018-12-08T01:01:50.592Z,0.00
2018-12-08T01:02:50.575Z,0.00
2018-12-08T01:03:50.581Z,0.00
2018-12-08T01:04:50.538Z,0.00
2018-12-08T01:05:50.534Z,0.00
2018-12-08T01:06:50.521Z,0.00
2018-12-08T01:07:50.516Z,0.00
2018-12-08T01:08:50.510Z,0.00
2018-12-08T01:09:50.516Z,0.00
2018-12-08T01:10:50.494Z,0.00
2018-12-08T01:11:50.472Z,0.00
2018-12-08T01:12:50.451Z,0.00
2018-12-08T01:13:50.459Z,0.00
2018-12-08T01:14:50.448Z,0.00
2018-12-08T01:15:50.421Z,0.00
2018-12-08T01:16:50.410Z,0.00
2018-12-08T01:17:50.404Z,0.00
2018-12-08T01:18:50.406Z,0.00
2018-12-08T01:19:50.388Z,0.00
2018-12-08T01:20:50.367Z,0.00
2018-12-08T01:21:50.356Z,0.00
2018-12-08T01:22:50.345Z,0.00
2018-12-08T01:23:50.361Z,0.00
2018-12-08T01:24:50.325Z,0.00
2018-12-08T01:25:50.320Z,0.00
2018-12-08T01:26:50.303Z,0.00
2018-12-08T01:27:50.292Z,0.00
2018-12-08T01:28:50.286Z,0.00
2018-12-08T01:29:50.380Z,0.00
2018-12-08T01:30:50.262Z,0.00
2018-12-08T01:31:50.259Z,0.00
2018-12-08T01:32:50.246Z,0.00
2018-12-08T01:33:50.234Z,0.00
2018-12-08T01:34:50.233Z,0.00
2018-12-08T01:35:50.212Z,0.00
2018-12-08T01:36:50.202Z,0.00
2018-12-08T01:37:50.190Z,0.00
2018-12-08T01:38:50.188Z,0.00
2018-12-08T01:39:50.183Z,0.00
2018-12-08T01:40:50.160Z,0.00
2018-12-08T01:41:50.148Z,0.00
2018-12-08T01:42:50.143Z,0.00
2018-12-08T01:43:50.127Z,0.00
2018-12-08T01:44:50.140Z,0.00
2018-12-08T01:45:50.107Z,0.00
2018-12-08T01:46:50.094Z,0.00
2018-12-08T01:47:50.084Z,0.00
2018-12-08T01:48:50.074Z,0.00
2018-12-08T01:49:50.077Z,0.00
2018-12-08T01:50:50.064Z,0.00
2018-12-08T01:51:50.045Z,0.00
2018-12-08T01:52:50.042Z,0.00
2018-12-08T01:53:50.025Z,0.00
2018-12-08T01:54:50.025Z,0.00
2018-12-08T01:55:49.999Z,0.00
2018-12-08T01:56:49.991Z,0.00
2018-12-08T01:57:49.977Z,0.00
2018-12-08T01:58:49.967Z,0.00
2018-12-08T01:59:49.971Z,0.00
2018-12-08T02:00:49.946Z,0.00
2018-12-08T02:01:49.937Z,0.00
2018-12-08T02:02:49.938Z,0.00
2018-12-08T02:03:49.919Z,0.00
2018-12-08T02:04:49.916Z,0.00
2018-12-08T02:05:49.894Z,0.00
2018-12-08T02:06:49.882Z,0.00
2018-12-08T02:07:49.876Z,0.00
2018-12-08T02:08:49.861Z,0.00
2018-12-08T02:09:49.875Z,0.00
2018-12-08T02:10:49.844Z,0.00
2018-12-08T02:11:49.831Z,0.00
2018-12-08T02:12:49.914Z,0.00
2018-12-08T02:13:49.810Z,0.00
2018-12-08T02:14:49.810Z,0.00
2018-12-08T02:15:49.795Z,0.00
2018-12-08T02:16:49.779Z,0.00
2018-12-08T02:17:49.767Z,0.00
2018-12-08T02:18:49.754Z,0.00
2018-12-08T02:19:49.758Z,0.00
2018-12-08T02:20:49.733Z,0.00
2018-12-08T02:21:49.733Z,0.00
2018-12-08T02:22:49.722Z,0.00
2018-12-08T02:23:49.704Z,0.00
2018-12-08T02:24:49.702Z,0.00
2018-12-08T02:25:49.680Z,0.00
2018-12-08T02:26:49.669Z,0.00
2018-12-08T02:27:49.661Z,0.00
2018-12-08T02:28:49.663Z,0.00
2018-12-08T02:29:49.652Z,0.00
2018-12-08T02:30:49.627Z,0.00
2018-12-08T02:31:49.620Z,0.00
2018-12-08T02:32:49.606Z,0.00
2018-12-08T02:33:49.603Z,0.00
2018-12-08T02:34:49.600Z,0.00
2018-12-08T02:35:49.579Z,0.00
2018-12-08T02:36:49.565Z,0.00
2018-12-08T02:37:49.552Z,0.00
2018-12-08T02:38:49.545Z,0.00
2018-12-08T02:39:49.545Z,0.00
2018-12-08T02:40:49.522Z,0.00
2018-12-08T02:41:49.509Z,0.00
2018-12-08T02:42:49.500Z,0.00
2018-12-08T02:43:49.488Z,0.00
2018-12-08T02:44:49.508Z,0.00
2018-12-08T02:45:49.473Z,0.00
2018-12-08T02:46:49.458Z,0.00
2018-12-08T02:47:49.448Z,0.00
2018-12-08T02:48:49.437Z,0.00
2018-12-08T02:49:49.438Z,0.00
2018-12-08T02:50:49.419Z,0.00
2018-12-08T02:51:49.403Z,0.00
2018-12-08T02:52:49.392Z,0.00
2018-12-08T02:53:49.384Z,0.00
2018-12-08T02:54:49.390Z,0.00
2018-12-08T02:55:49.361Z,0.00
2018-12-08T02:56:49.368Z,0.00
2018-12-08T02:57:49.344Z,0.00
2018-12-08T02:58:49.343Z,0.00
2018-12-08T02:59:49.343Z,0.00
2018-12-08T03:00:49.321Z,0.00
2018-12-08T03:01:49.326Z,0.00
2018-12-08T03:02:49.295Z,0.00
2018-12-08T03:03:49.288Z,0.00
2018-12-08T03:04:49.284Z,0.00
2018-12-08T03:05:49.254Z,0.00
2018-12-08T03:06:49.250Z,0.00
2018-12-08T03:07:49.234Z,0.00
2018-12-08T03:08:49.221Z,0.00
2018-12-08T03:09:49.237Z,0.00
2018-12-08T03:10:49.244Z,0.00
2018-12-08T03:11:49.190Z,0.00
2018-12-08T03:12:49.179Z,0.00
2018-12-08T03:13:49.167Z,0.00
2018-12-08T03:14:49.178Z,0.00
2018-12-08T03:15:49.157Z,0.00
2018-12-08T03:16:49.138Z,0.00
2018-12-08T03:17:49.127Z,0.00
2018-12-08T03:18:49.115Z,0.00
2018-12-08T03:19:49.117Z,0.00
2018-12-08T03:20:49.105Z,0.00
2018-12-08T03:21:49.093Z,0.00
2018-12-08T03:22:49.075Z,0.00
2018-12-08T03:23:49.061Z,0.00
2018-12-08T03:24:49.065Z,0.00
2018-12-08T03:25:49.043Z,0.00
2018-12-08T03:26:49.030Z,0.00
2018-12-08T03:27:49.022Z,0.00
2018-12-08T03:28:49.017Z,0.00
2018-12-08T03:29:49.012Z,0.00
2018-12-08T03:30:48.998Z,0.00
2018-12-08T03:31:48.976Z,0.00
2018-12-08T03:32:48.983Z,0.00
2018-12-08T03:33:48.956Z,0.00
2018-12-08T03:34:48.967Z,0.00
2018-12-08T03:35:48.935Z,0.00
2018-12-08T03:36:48.923Z,0.00
2018-12-08T03:37:48.914Z,0.00
2018-12-08T03:38:48.902Z,0.00
2018-12-08T03:39:48.903Z,0.00
2018-12-08T03:40:48.891Z,0.00
2018-12-08T03:41:48.876Z,0.00
2018-12-08T03:42:48.871Z,0.00
2018-12-08T03:43:48.862Z,0.00
2018-12-08T03:44:48.854Z,0.00
2018-12-08T03:45:48.840Z,0.00
2018-12-08T03:46:48.824Z,0.00
2018-12-08T03:47:48.808Z,0.00
2018-12-08T03:48:48.796Z,0.00
2018-12-08T03:49:48.799Z,0.00
2018-12-08T03:50:48.776Z,0.00
2018-12-08T03:51:48.770Z,0.00
2018-12-08T03:52:48.758Z,0.00
2018-12-08T03:53:48.754Z,0.00
2018-12-08T03:54:48.748Z,0.00
2018-12-08T03:55:48.728Z,0.00
2018-12-08T03:56:48.711Z,0.00
2018-12-08T03:57:48.712Z,0.00
2018-12-08T03:58:48.688Z,0.00
2018-12-08T03:59:48.694Z,0.00
2018-12-08T04:00:48.670Z,0.00
2018-12-08T04:01:48.661Z,0.00
2018-12-08T04:02:48.647Z,0.00
2018-12-08T04:03:48.650Z,0.00
2018-12-08T04:04:48.639Z,0.00
2018-12-08T04:05:48.620Z,0.00
2018-12-08T04:06:48.604Z,0.00
2018-12-08T04:07:48.594Z,0.00
2018-12-08T04:08:48.588Z,0.00
2018-12-08T04:09:48.592Z,0.00
2018-12-08T04:10:48.710Z,0.00
2018-12-08T04:11:48.551Z,0.00
2018-12-08T04:12:48.542Z,0.00
2018-12-08T04:13:48.540Z,0.00
2018-12-08T04:14:48.532Z,0.00
2018-12-08T04:15:48.515Z,0.00
2018-12-08T04:16:48.497Z,0.00
2018-12-08T04:17:48.501Z,0.00
2018-12-08T04:18:48.476Z,0.00
2018-12-08T04:19:48.481Z,0.00
2018-12-08T04:20:48.455Z,0.00
2018-12-08T04:21:48.445Z,0.00
2018-12-08T04:22:48.434Z,0.00
2018-12-08T04:23:48.436Z,0.00
2018-12-08T04:24:48.427Z,0.00
2018-12-08T04:25:48.405Z,0.00
2018-12-08T04:26:48.391Z,0.00
2018-12-08T04:27:48.380Z,0.00
2018-12-08T04:28:48.372Z,0.00
2018-12-08T04:29:48.373Z,0.00
2018-12-08T04:30:48.352Z,0.00
2018-12-08T04:31:48.360Z,0.00
2018-12-08T04:32:48.341Z,0.00
2018-12-08T04:33:48.350Z,0.00
2018-12-08T04:34:48.362Z,0.00
2018-12-08T04:35:48.306Z,0.00
2018-12-08T04:36:48.286Z,0.00
2018-12-08T04:37:48.288Z,0.00
2018-12-08T04:38:48.273Z,0.00
2018-12-08T04:39:48.267Z,0.00
2018-12-08T04:40:48.243Z,0.00
2018-12-08T04:41:48.243Z,0.00
2018-12-08T04:42:48.220Z,0.00
2018-12-08T04:43:48.220Z,0.00
2018-12-08T04:44:48.212Z,0.00
2018-12-08T04:45:48.189Z,0.00
2018-12-08T04:46:48.187Z,0.00
2018-12-08T04:47:48.181Z,0.00
2018-12-08T04:48:48.162Z,0.00
2018-12-08T04:49:48.160Z,0.00
2018-12-08T04:50:48.135Z,0.00
2018-12-08T04:51:48.129Z,0.00
2018-12-08T04:52:48.116Z,0.00
2018-12-08T04:53:48.110Z,0.00
2018-12-08T04:54:48.108Z,0.00
2018-12-08T04:55:48.082Z,0.00
2018-12-08T04:56:48.072Z,0.00
2018-12-08T04:57:48.062Z,0.00
2018-12-08T04:58:48.053Z,0.00
2018-12-08T04:59:48.239Z,0.00
2018-12-08T05:00:48.029Z,0.00
2018-12-08T05:01:48.020Z,0.00
2018-12-08T05:02:48.014Z,0.00
2018-12-08T05:03:47.998Z,0.00
2018-12-08T05:04:47.988Z,0.00
2018-12-08T05:05:47.998Z,0.00
2018-12-08T05:06:47.968Z,0.00
2018-12-08T05:07:47.993Z,0.00
2018-12-08T05:08:47.951Z,0.00
2018-12-08T05:09:47.937Z,0.00
2018-12-08T05:10:47.950Z,0.00
2018-12-08T05:11:47.920Z,0.00
2018-12-08T05:12:47.902Z,0.00
2018-12-08T05:13:47.895Z,0.00
2018-12-08T05:14:47.882Z,0.00
2018-12-08T05:15:47.884Z,0.00
2018-12-08T05:16:47.862Z,0.00
2018-12-08T05:17:47.849Z,0.00
2018-12-08T05:18:47.842Z,0.00
2018-12-08T05:19:47.835Z,0.00
2018-12-08T05:20:47.850Z,0.00
2018-12-08T05:21:47.816Z,0.00
2018-12-08T05:22:47.802Z,0.00
2018-12-08T05:23:47.804Z,0.00
2018-12-08T05:24:47.775Z,0.00
2018-12-08T05:25:47.788Z,0.00
2018-12-08T05:26:47.756Z,0.00
2018-12-08T05:27:47.744Z,0.00
2018-12-08T05:28:47.750Z,0.00
2018-12-08T05:29:47.721Z,0.00
2018-12-08T05:30:47.727Z,0.00
2018-12-08T05:31:47.703Z,0.00
2018-12-08T05:32:47.690Z,0.00
2018-12-08T05:33:47.685Z,0.00
2018-12-08T05:34:47.672Z,0.00
2018-12-08T05:35:47.684Z,0.00
2018-12-08T05:36:47.648Z,0.00
2018-12-08T05:37:47.637Z,0.00
2018-12-08T05:38:47.626Z,0.00
2018-12-08T05:39:47.616Z,0.00
2018-12-08T05:40:47.618Z,0.00
2018-12-08T05:41:47.601Z,0.00
2018-12-08T05:42:47.585Z,0.00
2018-12-08T05:43:47.574Z,0.00
2018-12-08T05:44:47.564Z,0.00
2018-12-08T05:45:47.568Z,0.00
2018-12-08T05:46:47.543Z,0.00
2018-12-08T05:47:47.541Z,0.00
2018-12-08T05:48:47.528Z,0.00
2018-12-08T05:49:47.519Z,0.00
2018-12-08T05:50:47.515Z,0.00
2018-12-08T05:51:47.490Z,0.00
2018-12-08T05:52:47.483Z,0.00
2018-12-08T05:53:47.566Z,0.00
2018-12-08T05:54:47.460Z,0.00
2018-12-08T05:55:47.470Z,0.00
2018-12-08T05:56:47.437Z,0.00
2018-12-08T05:57:47.426Z,0.00
2018-12-08T05:58:47.415Z,0.00
2018-12-08T05:59:47.405Z,0.00
2018-12-08T06:00:47.407Z,0.00
2018-12-08T06:01:47.388Z,0.00
2018-12-08T06:02:47.379Z,0.00
2018-12-08T06:03:47.363Z,0.00
2018-12-08T06:04:47.351Z,0.00
2018-12-08T06:05:47.353Z,0.00
2018-12-08T06:06:47.330Z,0.00
2018-12-08T06:07:47.320Z,0.00
2018-12-08T06:08:47.319Z,0.00
2018-12-08T06:09:47.299Z,0.00
2018-12-08T06:10:47.302Z,0.00
2018-12-08T06:11:47.278Z,0.00
2018-12-08T06:12:47.270Z,0.00
2018-12-08T06:13:47.257Z,0.00
2018-12-08T06:14:47.255Z,0.00
2018-12-08T06:15:47.249Z,0.00
2018-12-08T06:16:47.226Z,0.00
2018-12-08T06:17:47.217Z,0.00
2018-12-08T06:18:47.203Z,0.00
2018-12-08T06:19:47.193Z,0.00
2018-12-08T06:20:47.200Z,0.00
2018-12-08T06:21:47.191Z,0.00
2018-12-08T06:22:47.161Z,0.00
2018-12-08T06:23:47.150Z,0.00
2018-12-08T06:24:47.140Z,0.00
2018-12-08T06:25:47.144Z,0.00
2018-12-08T06:26:47.119Z,0.00
2018-12-08T06:27:47.112Z,0.00
2018-12-08T06:28:47.099Z,0.00
2018-12-08T06:29:47.100Z,0.00
2018-12-08T06:30:47.094Z,0.00
2018-12-08T06:31:47.066Z,0.00
2018-12-08T06:32:47.058Z,0.00
2018-12-08T06:33:47.045Z,0.00
2018-12-08T06:34:47.034Z,0.00
2018-12-08T06:35:47.048Z,0.00
2018-12-08T06:36:47.013Z,0.00
2018-12-08T06:37:47.003Z,0.00
2018-12-08T06:38:46.993Z,0.00
2018-12-08T06:39:46.981Z,0.00
2018-12-08T06:40:46.985Z,0.00
2018-12-08T06:41:46.975Z,0.00
2018-12-08T06:42:46.949Z,0.00
2018-12-08T06:43:46.940Z,0.00
2018-12-08T06:44:46.928Z,0.00
2018-12-08T06:45:46.930Z,0.00
2018-12-08T06:46:46.908Z,0.00
2018-12-08T06:47:46.903Z,0.00
2018-12-08T06:48:46.887Z,0.00
2018-12-08T06:49:46.876Z,0.00
2018-12-08T06:50:46.878Z,0.00
2018-12-08T06:51:46.854Z,0.00
2018-12-08T06:52:46.843Z,0.00
2018-12-08T06:53:46.839Z,0.00
2018-12-08T06:54:46.833Z,5.62
2018-12-08T06:55:46.828Z,5.62
2018-12-08T06:56:46.802Z,5.62
2018-12-08T06:57:46.791Z,5.62
2018-12-08T06:58:46.785Z,5.62
2018-12-08T06:59:46.770Z,5.62
2018-12-08T07:00:46.779Z,11.25
2018-12-08T07:01:46.747Z,11.25
2018-12-08T07:02:46.738Z,11.25
2018-12-08T07:03:46.733Z,11.25
2018-12-08T07:04:46.717Z,11.25
2018-12-08T07:05:46.737Z,11.25
2018-12-08T07:06:46.709Z,16.88
2018-12-08T07:07:46.685Z,11.25
2018-12-08T07:08:46.675Z,11.25
2018-12-08T07:09:46.664Z,16.88
2018-12-08T07:10:46.659Z,16.88
2018-12-08T07:11:46.656Z,16.88
2018-12-08T07:12:46.634Z,16.88
2018-12-08T07:13:46.636Z,16.88
2018-12-08T07:14:46.623Z,22.50
2018-12-08T07:15:46.601Z,28.12
2018-12-08T07:16:46.622Z,33.75
2018-12-08T07:17:46.579Z,33.75
2018-12-08T07:18:46.570Z,39.38
2018-12-08T07:19:46.561Z,39.38
2018-12-08T07:20:46.548Z,45.00
2018-12-08T07:21:46.550Z,45.00
2018-12-08T07:22:46.529Z,50.62
2018-12-08T07:23:46.518Z,50.62
2018-12-08T07:24:46.510Z,56.25
2018-12-08T07:25:46.499Z,61.88
2018-12-08T07:26:46.499Z,61.88
2018-12-08T07:27:46.472Z,67.50
2018-12-08T07:28:46.463Z,73.12
2018-12-08T07:29:46.453Z,73.12
2018-12-08T07:30:46.456Z,73.12
2018-12-08T07:31:46.442Z,78.75
2018-12-08T07:32:46.423Z,90.00
2018-12-08T07:33:46.408Z,90.00
2018-12-08T07:34:46.401Z,95.62
2018-12-08T07:35:46.388Z,101.25
2018-12-08T07:36:46.399Z,101.25
2018-12-08T07:37:46.367Z,106.88
2018-12-08T07:38:46.358Z,112.50
2018-12-08T07:39:46.344Z,112.50
2018-12-08T07:40:46.334Z,112.50
2018-12-08T07:41:46.339Z,106.88
2018-12-08T07:42:46.321Z,95.62
2018-12-08T07:43:46.314Z,95.62
2018-12-08T07:44:46.300Z,95.62
2018-12-08T07:45:46.282Z,106.88
2018-12-08T07:46:46.284Z,112.50
2018-12-08T07:47:46.260Z,123.75
2018-12-08T07:48:46.249Z,135.00
2018-12-08T07:49:46.237Z,140.62
2018-12-08T07:50:46.231Z,151.88
2018-12-08T07:51:46.232Z,163.12
2018-12-08T07:52:46.206Z,174.38
2018-12-08T07:53:46.196Z,185.62
2018-12-08T07:54:46.185Z,185.62
2018-12-08T07:55:46.174Z,196.88
2018-12-08T07:56:46.191Z,196.88
2018-12-08T07:57:46.152Z,208.12
2018-12-08T07:58:46.144Z,213.75
2018-12-08T07:59:46.130Z,225.00
2018-12-08T08:00:46.121Z,225.00
2018-12-08T08:01:46.147Z,230.62
2018-12-08T08:02:46.106Z,236.25
2018-12-08T08:03:46.090Z,230.62
2018-12-08T08:04:46.079Z,208.12
2018-12-08T08:05:46.071Z,202.50
2018-12-08T08:06:46.059Z,191.25
2018-12-08T08:07:46.068Z,185.62
2018-12-08T08:08:46.056Z,202.50
2018-12-08T08:09:46.026Z,225.00
2018-12-08T08:10:46.016Z,236.25
2018-12-08T08:11:46.110Z,230.62
2018-12-08T08:12:46.007Z,225.00
2018-12-08T08:13:45.983Z,225.00
2018-12-08T08:14:45.983Z,230.62
2018-12-08T08:15:45.963Z,236.25
2018-12-08T08:16:45.952Z,247.50
2018-12-08T08:17:45.955Z,264.38
2018-12-08T08:18:45.931Z,270.00
2018-12-08T08:19:45.920Z,275.62
2018-12-08T08:20:45.925Z,275.62
2018-12-08T08:21:45.899Z,275.62
2018-12-08T08:22:45.906Z,275.62
2018-12-08T08:23:45.878Z,281.25
2018-12-08T08:24:45.873Z,281.25
2018-12-08T08:25:45.857Z,275.62
2018-12-08T08:26:45.851Z,264.38
2018-12-08T08:27:45.847Z,264.38
2018-12-08T08:28:45.829Z,264.38
2018-12-08T08:29:45.817Z,264.38
2018-12-08T08:30:45.805Z,264.38
2018-12-08T08:31:45.792Z,258.75
2018-12-08T08:32:45.804Z,264.38
2018-12-08T08:33:45.772Z,258.75
2018-12-08T08:34:45.760Z,264.38
2018-12-08T08:35:45.754Z,270.00
2018-12-08T08:36:45.741Z,275.62
2018-12-08T08:37:45.741Z,281.25
2018-12-08T08:38:45.726Z,286.88
2018-12-08T08:39:45.708Z,292.50
2018-12-08T08:40:45.696Z,292.50
2018-12-08T08:41:45.685Z,303.75
2018-12-08T08:42:45.687Z,309.38
2018-12-08T08:43:45.663Z,309.38
2018-12-08T08:44:45.665Z,303.75
2018-12-08T08:45:45.645Z,298.12
2018-12-08T08:46:45.634Z,286.88
2018-12-08T08:47:45.633Z,292.50
2018-12-08T08:48:45.612Z,309.38
2018-12-08T08:49:45.601Z,315.00
2018-12-08T08:50:45.590Z,320.62
2018-12-08T08:51:45.578Z,331.88
2018-12-08T08:52:45.585Z,331.88
2018-12-08T08:53:45.556Z,331.88
2018-12-08T08:54:45.554Z,337.50
2018-12-08T08:55:45.554Z,343.12
2018-12-08T08:56:45.524Z,354.38
2018-12-08T08:57:45.530Z,371.25
2018-12-08T08:58:45.506Z,371.25
2018-12-08T08:59:45.494Z,376.88
2018-12-08T09:00:45.481Z,382.50
2018-12-08T09:01:45.471Z,382.50
2018-12-08T09:02:45.479Z,376.88
2018-12-08T09:03:45.448Z,382.50
2018-12-08T09:04:45.440Z,388.12
2018-12-08T09:05:45.428Z,393.75
2018-12-08T09:06:45.419Z,405.00
2018-12-08T09:07:45.421Z,416.25
2018-12-08T09:08:45.412Z,421.88
2018-12-08T09:09:45.412Z,427.50
2018-12-08T09:10:45.384Z,455.62
2018-12-08T09:11:45.378Z,450.00
2018-12-08T09:12:45.386Z,421.88
2018-12-08T09:13:45.342Z,399.38
2018-12-08T09:14:45.341Z,410.62
2018-12-08T09:15:45.325Z,416.25
2018-12-08T09:16:45.313Z,382.50
2018-12-08T09:17:45.322Z,365.62
2018-12-08T09:18:45.288Z,343.12
2018-12-08T09:19:45.283Z,331.88
2018-12-08T09:20:45.276Z,331.88
2018-12-08T09:21:45.257Z,315.00
2018-12-08T09:22:45.257Z,320.62
2018-12-08T09:23:45.235Z,360.00
2018-12-08T09:24:45.223Z,388.12
2018-12-08T09:25:45.217Z,405.00
2018-12-08T09:26:45.204Z,399.38
2018-12-08T09:27:45.203Z,410.62
2018-12-08T09:28:45.184Z,433.12
2018-12-08T09:29:45.170Z,450.00
2018-12-08T09:30:45.160Z,489.38
2018-12-08T09:31:45.147Z,500.62
2018-12-08T09:32:45.150Z,466.88
2018-12-08T09:33:45.126Z,450.00
2018-12-08T09:34:45.116Z,421.88
2018-12-08T09:35:45.123Z,410.62
2018-12-08T09:36:45.098Z,421.88
2018-12-08T09:37:45.099Z,421.88
2018-12-08T09:38:45.076Z,405.00
2018-12-08T09:39:45.070Z,405.00
2018-12-08T09:40:45.090Z,399.38
2018-12-08T09:41:45.042Z,371.25
2018-12-08T09:42:45.051Z,371.25
2018-12-08T09:43:45.023Z,388.12
2018-12-08T09:44:45.009Z,405.00
2018-12-08T09:45:44.998Z,421.88
2018-12-08T09:46:44.990Z,405.00
2018-12-08T09:47:44.989Z,399.38
2018-12-08T09:48:44.968Z,433.12
2018-12-08T09:49:44.955Z,483.75
2018-12-08T09:50:44.945Z,506.25
2018-12-08T09:51:44.991Z,517.50
2018-12-08T09:52:44.938Z,506.25
2018-12-08T09:53:44.911Z,478.12
2018-12-08T09:54:44.901Z,618.75
2018-12-08T09:55:44.893Z,748.12
2018-12-08T09:56:44.879Z,596.25
2018-12-08T09:57:44.891Z,731.25
2018-12-08T09:58:44.862Z,1108.12
2018-12-08T09:59:44.848Z,753.75
2018-12-08T10:00:44.837Z,770.62
2018-12-08T10:01:44.828Z,618.75
2018-12-08T10:02:44.829Z,714.38
2018-12-08T10:03:44.810Z,635.62
2018-12-08T10:04:44.796Z,731.25
2018-12-08T10:05:44.786Z,691.88
2018-12-08T10:06:44.775Z,680.62
2018-12-08T10:07:44.777Z,613.12
2018-12-08T10:08:44.753Z,540.00
2018-12-08T10:09:44.748Z,556.88
2018-12-08T10:10:44.732Z,540.00
2018-12-08T10:11:44.729Z,438.75
2018-12-08T10:12:44.747Z,360.00
2018-12-08T10:13:44.729Z,388.12
2018-12-08T10:14:44.694Z,433.12
2018-12-08T10:15:44.678Z,427.50
2018-12-08T10:16:44.674Z,438.75
2018-12-08T10:17:44.672Z,444.38
2018-12-08T10:18:44.645Z,399.38
2018-12-08T10:19:44.648Z,371.25
2018-12-08T10:20:44.627Z,405.00
2018-12-08T10:21:44.617Z,444.38
2018-12-08T10:22:44.666Z,478.12
2018-12-08T10:23:44.601Z,450.00
2018-12-08T10:24:44.589Z,416.25
2018-12-08T10:25:44.577Z,399.38
2018-12-08T10:26:44.565Z,399.38
2018-12-08T10:27:44.550Z,388.12
2018-12-08T10:28:44.557Z,393.75
2018-12-08T10:29:44.528Z,337.50
2018-12-08T10:30:44.518Z,298.12
2018-12-08T10:31:44.510Z,286.88
2018-12-08T10:32:44.507Z,292.50
2018-12-08T10:33:44.501Z,281.25
2018-12-08T10:34:44.475Z,270.00
2018-12-08T10:35:44.468Z,281.25
2018-12-08T10:36:44.454Z,281.25
2018-12-08T10:37:44.446Z,286.88
2018-12-08T10:38:44.459Z,309.38
2018-12-08T10:39:44.703Z,292.50
2018-12-08T10:40:44.412Z,286.88
2018-12-08T10:41:44.403Z,292.50
2018-12-08T10:42:44.391Z,303.75
2018-12-08T10:43:44.393Z,343.12
2018-12-08T10:44:44.379Z,348.75
2018-12-08T10:45:44.358Z,298.12
2018-12-08T10:46:44.347Z,241.88
2018-12-08T10:47:44.337Z,196.88
2018-12-08T10:48:44.337Z,202.50
2018-12-08T10:49:44.322Z,213.75
2018-12-08T10:50:44.307Z,202.50
2018-12-08T10:51:44.293Z,213.75
2018-12-08T10:52:44.283Z,247.50
2018-12-08T10:53:44.287Z,253.12
2018-12-08T10:54:44.260Z,236.25
2018-12-08T10:55:44.254Z,225.00
2018-12-08T10:56:44.246Z,219.38
2018-12-08T10:57:44.235Z,213.75
2018-12-08T10:58:44.233Z,208.12
2018-12-08T10:59:44.217Z,213.75
2018-12-08T11:00:44.198Z,241.88
2018-12-08T11:01:44.191Z,275.62
2018-12-08T11:02:44.186Z,326.25
2018-12-08T11:03:44.177Z,399.38
2018-12-08T11:04:44.155Z,455.62
2018-12-08T11:05:44.143Z,483.75
2018-12-08T11:06:44.132Z,444.38
2018-12-08T11:07:44.122Z,388.12
2018-12-08T11:08:44.139Z,354.38
2018-12-08T11:09:44.100Z,376.88
2018-12-08T11:10:44.090Z,416.25
2018-12-08T11:11:44.103Z,433.12
2018-12-08T11:12:44.068Z,376.88
2018-12-08T11:13:44.071Z,354.38
2018-12-08T11:14:44.053Z,354.38
2018-12-08T11:15:44.040Z,371.25
2018-12-08T11:16:44.028Z,405.00
2018-12-08T11:17:44.023Z,461.25
2018-12-08T11:18:44.041Z,506.25
2018-12-08T11:19:44.001Z,511.88
2018-12-08T11:20:43.986Z,500.62
2018-12-08T11:21:43.984Z,523.12
2018-12-08T11:22:43.970Z,523.12
2018-12-08T11:23:43.969Z,528.75
2018-12-08T11:24:43.943Z,461.25
2018-12-08T11:25:43.929Z,405.00
2018-12-08T11:26:43.927Z,371.25
2018-12-08T11:27:43.910Z,354.38
2018-12-08T11:28:43.914Z,354.38
2018-12-08T11:29:43.886Z,427.50
2018-12-08T11:30:43.894Z,455.62
2018-12-08T11:31:43.869Z,466.88
2018-12-08T11:32:43.854Z,416.25
2018-12-08T11:33:43.857Z,337.50
2018-12-08T11:34:43.836Z,348.75
2018-12-08T11:35:43.821Z,427.50
2018-12-08T11:36:49.547Z,461.25
2018-12-08T11:37:44.802Z,461.25
2018-12-08T11:38:43.806Z,433.12
2018-12-08T11:39:43.804Z,410.62
2018-12-08T11:40:43.773Z,416.25
2018-12-08T11:41:43.760Z,438.75
2018-12-08T11:42:43.752Z,410.62
2018-12-08T11:43:43.751Z,382.50
2018-12-08T11:44:43.739Z,376.88
2018-12-08T11:45:43.787Z,343.12
2018-12-08T11:46:43.703Z,292.50
2018-12-08T11:47:43.697Z,247.50
2018-12-08T11:48:43.696Z,236.25
2018-12-08T11:49:43.675Z,258.75
2018-12-08T11:50:43.662Z,298.12
2018-12-08T11:51:43.650Z,360.00
2018-12-08T11:52:43.651Z,427.50
2018-12-08T11:53:43.648Z,421.88
2018-12-08T11:54:43.618Z,388.12
2018-12-08T11:55:43.608Z,388.12
2018-12-08T11:56:43.597Z,461.25
2018-12-08T11:57:43.668Z,506.25
2018-12-08T11:58:43.593Z,545.62
2018-12-08T11:59:43.572Z,534.38
2018-12-08T12:00:43.560Z,472.50
2018-12-08T12:01:43.550Z,433.12
2018-12-08T12:02:43.534Z,450.00
2018-12-08T12:03:43.536Z,461.25
2018-12-08T12:04:43.511Z,472.50
2018-12-08T12:05:44.494Z,444.38
2018-12-08T12:06:43.491Z,466.88
2018-12-08T12:07:43.482Z,590.62
2018-12-08T12:08:43.483Z,714.38
2018-12-08T12:09:43.462Z,725.62
2018-12-08T12:10:43.536Z,646.88
2018-12-08T12:11:43.437Z,545.62
2018-12-08T12:12:43.425Z,472.50
2018-12-08T12:13:43.432Z,427.50
2018-12-08T12:14:43.403Z,416.25
2018-12-08T12:15:43.403Z,410.62
2018-12-08T12:16:43.388Z,427.50
2018-12-08T12:17:43.379Z,421.88
2018-12-08T12:18:43.389Z,421.88
2018-12-08T12:19:43.363Z,461.25
2018-12-08T12:20:43.343Z,489.38
2018-12-08T12:21:43.348Z,489.38
2018-12-08T12:22:43.317Z,489.38
2018-12-08T12:23:43.323Z,478.12
2018-12-08T12:24:43.304Z,455.62
2018-12-08T12:25:43.286Z,438.75
2018-12-08T12:26:43.274Z,438.75
2018-12-08T12:27:43.268Z,472.50
2018-12-08T12:28:43.371Z,500.62
2018-12-08T12:29:43.244Z,483.75
2018-12-08T12:30:43.233Z,466.88
2018-12-08T12:31:43.222Z,427.50
2018-12-08T12:32:43.210Z,421.88
2018-12-08T12:33:43.221Z,489.38
2018-12-08T12:34:43.195Z,534.38
2018-12-08T12:35:43.188Z,511.88
2018-12-08T12:36:43.168Z,466.88
2018-12-08T12:37:43.158Z,416.25
2018-12-08T12:38:43.176Z,399.38
2018-12-08T12:39:43.137Z,348.75
2018-12-08T12:40:43.125Z,326.25
2018-12-08T12:41:43.124Z,303.75
2018-12-08T12:42:43.108Z,247.50
2018-12-08T12:43:43.097Z,219.38
2018-12-08T12:44:43.115Z,225.00
2018-12-08T12:45:43.086Z,253.12
2018-12-08T12:46:43.066Z,247.50
2018-12-08T12:47:43.061Z,270.00
2018-12-08T12:48:43.045Z,258.75
2018-12-08T12:49:43.046Z,247.50
2018-12-08T12:50:43.022Z,247.50
2018-12-08T12:51:43.011Z,292.50
2018-12-08T12:52:43.002Z,286.88
2018-12-08T12:53:42.986Z,258.75
2018-12-08T12:54:42.989Z,247.50
2018-12-08T12:55:42.979Z,253.12